SoundGuardian — WDI8675 — position and weather

sailwx.info

Track history (hours):
 
Tides and Currents Weather Stations Pressure Air Temp Water Temp Dewpoint Dewpoint Depression Visibility Wind Speed Wind Dir Waves Ship Positions

Oceanographic research ship SoundGuardian (United States)

Owner: King County Environmental Laboratory, Seattle, WA. More information available from US FCC via Universal Licensing System and Coast Guard Vessel Documentation Center.

Last reported at 2019-Feb-20 23:16 UTC. Time now 2019-Feb-23 23:53 UTC.
Position N 47°39' W 122°22'.

Length 13 m; draft 1 m.

Type: Other ship. MMSI: 367741020.

Date/timePositionNaut miles runAvg speedWind from/ knotsBaromVisibWave heightAir tempDewpointWater temp
2019-Feb-20 23:16N 47°39' W 122°22'1 4.9
2019-Feb-20 23:00N 47°40' W 122°23'2 4.2
2019-Feb-20 22:31N 47°39' W 122°26'4 8.0
2019-Feb-20 22:01N 47°35' W 122°26'2 4.9
2019-Feb-20 21:30N 47°33' W 122°25'0 0.9
2019-Feb-20 21:00N 47°32' W 122°24'1121.1
2019-Feb-20 20:31N 47°22' W 122°23'1 1.1
2019-Feb-20 20:01N 47°21' W 122°23'3 6.4
2019-Feb-20 19:31N 47°25' W 122°23'5 9.0
2019-Feb-20 19:00N 47°29' W 122°26'3 6.3
2019-Feb-20 18:30N 47°32' W 122°26'0 0.1
2019-Feb-20 18:00N 47°32' W 122°26'2 3.2
2019-Feb-20 17:30N 47°31' W 122°24'3 5.9
2019-Feb-20 17:00N 47°34' W 122°25'2 3.8
2019-Feb-20 16:30N 47°36' W 122°26'2 4.1
2019-Feb-20 16:00N 47°38' W 122°24'2 4.5
2019-Feb-20 15:30N 47°40' W 122°24'2 3.4
2019-Feb-20 15:01N 47°39' W 122°22'0 0.0
2019-Feb-20 00:13N 47°39' W 122°22'1 3.0
2019-Feb-20 00:00N 47°39' W 122°21'0 0.4
2019-Feb-19 23:30N 47°39' W 122°21'2 3.5
2019-Feb-19 23:00N 47°40' W 122°23'2 4.9
2019-Feb-19 22:31N 47°39' W 122°26'714.4
2019-Feb-19 22:00N 47°33' W 122°21'1 2.7
2019-Feb-19 21:30N 47°32' W 122°19'2 4.7
2019-Feb-19 21:00N 47°34' W 122°21'1 1.0
2019-Feb-19 20:30N 47°35' W 122°21'2 3.4
2019-Feb-19 20:00N 47°36' W 122°21'1 1.7
2019-Feb-19 19:30N 47°37' W 122°22'4 7.8
2019-Feb-19 19:01N 47°39' W 122°26'4 7.8
2019-Feb-19 18:31N 47°43' W 122°26'4 7.1
2019-Feb-19 18:01N 47°47' W 122°25'2 3.8
2019-Feb-19 17:30N 47°45' W 122°26'0 0.2
2019-Feb-19 17:00N 47°45' W 122°26'0 0.2
2019-Feb-19 16:30N 47°45' W 122°26'3 5.0
2019-Feb-19 16:00N 47°43' W 122°23'3 5.7
2019-Feb-19 15:31N 47°40' W 122°23'1 2.5
2019-Feb-19 15:01N 47°39' W 122°22'  
2019-Feb-11 21:36N 47°39' W 122°22'0 2.5
2019-Feb-11 21:30N 47°39' W 122°21'3 5.2
2019-Feb-11 21:00N 47°39' W 122°18'816.8
2019-Feb-11 20:30N 47°31' W 122°13'510.2
2019-Feb-11 19:59N 47°36' W 122°15'2 4.7
2019-Feb-11 19:31N 47°38' W 122°16'2 3.0
2019-Feb-11 19:01N 47°40' W 122°15'2 3.5
2019-Feb-11 18:31N 47°41' W 122°14'3 6.4
2019-Feb-11 18:00N 47°39' W 122°17'2 3.7
2019-Feb-11 17:31N 47°38' W 122°20'0 0.7
2019-Feb-11 17:00N 47°38' W 122°20'2 3.9
2019-Feb-11 16:30N 47°39' W 122°22'0 0.3
2019-Feb-11 16:01N 47°39' W 122°22'0 0.6
2019-Feb-11 15:30N 47°39' W 122°22'  
Track history (hours):
 
Tides and Currents Weather Stations Pressure Air Temp Water Temp Dewpoint Dewpoint Depression Visibility Wind Speed Wind Dir Waves Ship Positions

Oceanographic research ship SoundGuardian (United States)

Owner: King County Environmental Laboratory, Seattle, WA. More information available from US FCC via Universal Licensing System and Coast Guard Vessel Documentation Center.

Last reported at 2019-Feb-20 23:16 UTC. Time now 2019-Feb-23 23:53 UTC.
Position N 47°39' W 122°22'.

Length 13 m; draft 1 m.

Type: Other ship. MMSI: 367741020.

Date/timePositionNaut miles runAvg speedWind from/ knotsBaromVisibWave heightAir tempDewpointWater temp
2019-Feb-20 23:16N 47°39' W 122°22'1 4.9
2019-Feb-20 23:00N 47°40' W 122°23'2 4.2
2019-Feb-20 22:31N 47°39' W 122°26'4 8.0
2019-Feb-20 22:01N 47°35' W 122°26'2 4.9
2019-Feb-20 21:30N 47°33' W 122°25'0 0.9
2019-Feb-20 21:00N 47°32' W 122°24'1121.1
2019-Feb-20 20:31N 47°22' W 122°23'1 1.1
2019-Feb-20 20:01N 47°21' W 122°23'3 6.4
2019-Feb-20 19:31N 47°25' W 122°23'5 9.0
2019-Feb-20 19:00N 47°29' W 122°26'3 6.3
2019-Feb-20 18:30N 47°32' W 122°26'0 0.1
2019-Feb-20 18:00N 47°32' W 122°26'2 3.2
2019-Feb-20 17:30N 47°31' W 122°24'3 5.9
2019-Feb-20 17:00N 47°34' W 122°25'2 3.8
2019-Feb-20 16:30N 47°36' W 122°26'2 4.1
2019-Feb-20 16:00N 47°38' W 122°24'2 4.5
2019-Feb-20 15:30N 47°40' W 122°24'2 3.4
2019-Feb-20 15:01N 47°39' W 122°22'0 0.0
2019-Feb-20 00:13N 47°39' W 122°22'1 3.0
2019-Feb-20 00:00N 47°39' W 122°21'0 0.4
2019-Feb-19 23:30N 47°39' W 122°21'2 3.5
2019-Feb-19 23:00N 47°40' W 122°23'2 4.9
2019-Feb-19 22:31N 47°39' W 122°26'714.4
2019-Feb-19 22:00N 47°33' W 122°21'1 2.7
2019-Feb-19 21:30N 47°32' W 122°19'2 4.7
2019-Feb-19 21:00N 47°34' W 122°21'1 1.0
2019-Feb-19 20:30N 47°35' W 122°21'2 3.4
2019-Feb-19 20:00N 47°36' W 122°21'1 1.7
2019-Feb-19 19:30N 47°37' W 122°22'4 7.8
2019-Feb-19 19:01N 47°39' W 122°26'4 7.8
2019-Feb-19 18:31N 47°43' W 122°26'4 7.1
2019-Feb-19 18:01N 47°47' W 122°25'2 3.8
2019-Feb-19 17:30N 47°45' W 122°26'0 0.2
2019-Feb-19 17:00N 47°45' W 122°26'0 0.2
2019-Feb-19 16:30N 47°45' W 122°26'3 5.0
2019-Feb-19 16:00N 47°43' W 122°23'3 5.7
2019-Feb-19 15:31N 47°40' W 122°23'1 2.5
2019-Feb-19 15:01N 47°39' W 122°22'  
2019-Feb-11 21:36N 47°39' W 122°22'0 2.5
2019-Feb-11 21:30N 47°39' W 122°21'3 5.2
2019-Feb-11 21:00N 47°39' W 122°18'816.8
2019-Feb-11 20:30N 47°31' W 122°13'510.2
2019-Feb-11 19:59N 47°36' W 122°15'2 4.7
2019-Feb-11 19:31N 47°38' W 122°16'2 3.0
2019-Feb-11 19:01N 47°40' W 122°15'2 3.5
2019-Feb-11 18:31N 47°41' W 122°14'3 6.4
2019-Feb-11 18:00N 47°39' W 122°17'2 3.7
2019-Feb-11 17:31N 47°38' W 122°20'0 0.7
2019-Feb-11 17:00N 47°38' W 122°20'2 3.9
2019-Feb-11 16:30N 47°39' W 122°22'0 0.3
2019-Feb-11 16:01N 47°39' W 122°22'0 0.6
2019-Feb-11 15:30N 47°39' W 122°22'  

Dump ship's entire track history